createdAt,value
2022-12-15T09:05:43.035Z,101428.17
2022-12-15T09:13:50.428Z,100954.72
2022-12-15T09:21:59.381Z,100939.34
2022-12-15T09:33:54.450Z,100933.48
2022-12-15T09:37:15.616Z,100929.64
2022-12-15T09:40:32.130Z,100920.91
2022-12-15T09:43:52.617Z,100917.88
2022-12-15T09:47:37.453Z,100902.66
2022-12-15T09:50:57.298Z,100901.03
2022-12-15T09:54:13.525Z,100900.36
2022-12-15T09:57:33.396Z,100890.30
2022-12-15T10:01:26.847Z,100900.89
2022-12-15T10:04:55.737Z,100879.22
2022-12-15T10:08:20.676Z,100881.26
2022-12-15T10:12:27.778Z,100880.22
2022-12-15T10:15:53.925Z,100886.48
2022-12-15T10:19:26.651Z,100873.18
2022-12-15T10:22:44.603Z,100868.25
2022-12-15T10:26:10.521Z,100879.42
2022-12-15T10:30:13.215Z,100889.48
2022-12-15T10:33:38.647Z,100893.31
2022-12-15T10:37:09.368Z,100905.58
2022-12-15T10:40:25.733Z,100899.86
2022-12-15T10:43:56.014Z,100891.58
2022-12-15T10:47:24.290Z,100896.25
2022-12-15T10:50:50.239Z,100890.52
2022-12-15T10:54:23.983Z,100893.38
2022-12-15T10:57:43.738Z,100892.50
2022-12-15T11:01:03.433Z,100893.59
2022-12-15T11:08:35.026Z,100895.05
2022-12-15T11:12:25.997Z,100880.42
2022-12-15T11:16:04.194Z,100887.06
2022-12-15T11:20:14.036Z,100885.83
2022-12-15T11:24:50.112Z,100884.41
2022-12-15T11:28:20.118Z,100894.94
2022-12-15T11:31:50.739Z,100898.88
2022-12-15T11:35:05.821Z,100889.36
2022-12-15T11:39:00.877Z,100890.94
2022-12-15T11:42:37.094Z,100895.20
2022-12-15T11:50:05.130Z,100891.80
2022-12-15T11:57:36.969Z,100901.91
2022-12-15T12:00:46.859Z,100901.41
2022-12-15T12:04:37.927Z,100887.48
2022-12-15T12:07:58.132Z,100885.73
2022-12-15T12:11:31.979Z,100887.08
2022-12-15T12:15:37.227Z,100874.15
2022-12-15T12:19:02.229Z,100872.88
2022-12-15T12:22:02.415Z,100867.59
2022-12-15T12:25:12.270Z,100869.42
2022-12-15T12:28:33.556Z,100860.75
2022-12-15T12:32:20.884Z,100851.58
2022-12-15T12:35:50.936Z,100854.12
2022-12-15T12:39:23.389Z,100861.07
2022-12-15T12:43:00.739Z,100845.69
2022-12-15T12:46:24.028Z,100848.65
2022-12-15T12:50:04.053Z,100841.75
2022-12-15T12:53:16.967Z,100848.05
2022-12-15T12:56:59.055Z,100834.03
2022-12-15T13:00:52.394Z,100833.98
2022-12-15T13:04:05.115Z,100832.95
2022-12-15T13:07:44.111Z,100825.31
2022-12-15T13:11:13.689Z,100826.46
2022-12-15T13:14:38.170Z,100820.29
2022-12-15T13:17:57.412Z,100815.89
2022-12-15T13:21:17.239Z,100822.84
2022-12-15T13:24:58.121Z,100812.69
2022-12-15T13:28:37.684Z,100817.14
2022-12-15T13:32:05.694Z,100822.42
2022-12-15T13:35:20.805Z,100815.59
2022-12-15T13:38:39.249Z,100812.49
2022-12-15T13:42:31.712Z,100813.47
2022-12-15T13:45:24.693Z,100797.16
2022-12-15T13:48:57.186Z,100796.86
2022-12-15T13:59:59.118Z,100795.41
2022-12-15T14:03:28.924Z,100805.59
2022-12-15T14:06:52.591Z,100806.07
2022-12-15T14:10:10.197Z,100808.66
2022-12-15T14:13:39.632Z,100801.09
2022-12-15T14:16:53.600Z,100802.54
2022-12-15T14:20:12.748Z,100798.70
2022-12-15T14:23:41.523Z,100805.55
2022-12-15T14:26:53.313Z,100805.44
2022-12-15T14:30:04.218Z,100811.97
2022-12-15T14:33:33.277Z,100807.05
2022-12-15T14:36:51.068Z,100802.80
2022-12-15T14:40:10.091Z,100805.39
2022-12-15T14:47:15.382Z,100803.73
2022-12-15T14:50:31.402Z,100799.80
2022-12-15T14:53:46.178Z,100804.98
2022-12-15T14:56:56.226Z,100808.91
2022-12-15T15:00:11.902Z,100803.72
2022-12-15T15:03:35.511Z,100793.00
2022-12-15T15:07:01.052Z,100796.14
2022-12-15T15:10:22.585Z,100794.01
2022-12-15T15:13:46.515Z,100789.55
2022-12-15T15:17:02.972Z,100786.53
2022-12-15T15:20:19.307Z,100791.53
2022-12-15T15:23:33.864Z,100789.28
2022-12-15T15:26:46.298Z,100794.93
2022-12-15T15:30:03.485Z,100790.81
2022-12-15T15:33:15.004Z,100789.52
2022-12-15T15:36:33.541Z,100782.38
2022-12-15T15:39:46.854Z,100786.51
2022-12-15T15:43:00.034Z,100784.17
2022-12-15T15:46:14.795Z,100785.00
2022-12-15T15:49:25.864Z,100778.55
2022-12-15T15:52:36.085Z,100766.64
2022-12-15T15:55:53.802Z,100771.41
2022-12-15T15:59:07.173Z,100772.45
2022-12-15T16:02:17.737Z,100770.31
2022-12-15T16:05:29.258Z,100766.06
2022-12-15T16:08:44.279Z,100761.55
2022-12-15T16:11:55.514Z,100759.43
2022-12-15T16:15:08.737Z,100752.55
2022-12-15T16:18:20.580Z,100751.93
2022-12-15T16:21:36.240Z,100753.17
2022-12-15T16:24:45.234Z,100752.70
2022-12-15T16:27:53.360Z,100764.24
2022-12-15T16:31:11.014Z,100755.39
2022-12-15T16:34:30.401Z,100760.30
2022-12-15T16:41:03.462Z,100757.77
2022-12-15T16:44:16.542Z,100749.55
2022-12-15T16:47:35.766Z,100756.75
2022-12-15T16:50:54.004Z,100754.02
2022-12-15T16:54:06.031Z,100754.02
2022-12-15T16:57:25.517Z,100772.87
2022-12-15T17:00:43.154Z,100779.87
2022-12-15T17:03:59.924Z,100781.27
2022-12-15T17:07:20.537Z,100791.91
2022-12-15T17:10:37.171Z,100793.48
2022-12-15T17:13:56.659Z,100785.73
2022-12-15T17:17:15.487Z,100803.95
2022-12-15T17:20:37.044Z,100794.95
2022-12-15T17:23:50.307Z,100789.98
2022-12-15T17:27:04.590Z,100791.34
2022-12-15T17:30:18.265Z,100793.92
2022-12-15T17:33:45.505Z,100793.45
2022-12-15T17:36:56.804Z,100794.21
2022-12-15T17:40:09.993Z,100798.66
2022-12-15T17:43:23.047Z,100793.55
2022-12-15T17:46:35.503Z,100792.67
2022-12-15T17:49:53.773Z,100786.95
2022-12-15T17:53:07.258Z,100791.28
2022-12-15T17:56:17.240Z,100787.59
2022-12-15T17:59:40.555Z,100798.05
2022-12-15T18:03:07.188Z,100798.23
2022-12-15T18:06:17.183Z,100798.77
2022-12-15T18:09:42.190Z,100800.81
2022-12-15T18:12:55.686Z,100802.16
2022-12-15T18:16:04.335Z,100796.23
2022-12-15T18:19:19.927Z,100794.99
2022-12-15T18:22:36.098Z,100802.22
2022-12-15T18:29:00.254Z,100807.16
2022-12-15T18:32:12.689Z,100810.59
2022-12-15T18:35:38.035Z,100795.75
2022-12-15T18:38:51.111Z,100798.59
2022-12-15T18:42:06.146Z,100804.64
2022-12-15T18:45:22.208Z,100804.16
2022-12-15T18:48:44.677Z,100806.02
2022-12-15T18:51:55.608Z,100796.52
2022-12-15T18:55:05.287Z,100789.20
2022-12-15T18:58:16.061Z,100789.71
2022-12-15T19:01:32.349Z,100794.13
2022-12-15T19:04:55.311Z,100801.88
2022-12-15T19:08:09.370Z,100800.59
2022-12-15T19:11:48.842Z,100795.33
2022-12-15T19:15:01.167Z,100803.42
2022-12-15T19:18:28.078Z,100813.86
2022-12-15T19:22:01.224Z,100817.83
2022-12-15T19:25:19.295Z,100819.23
2022-12-15T19:28:32.594Z,100813.94
2022-12-15T19:31:45.049Z,100805.95
2022-12-15T19:34:59.162Z,100809.72
2022-12-15T19:38:11.542Z,100802.02
2022-12-15T19:41:29.577Z,100806.31
2022-12-15T19:44:46.297Z,100802.13
2022-12-15T19:47:56.462Z,100809.38
2022-12-15T19:51:12.480Z,100806.95
2022-12-15T19:54:34.666Z,100809.27
2022-12-15T19:57:43.042Z,100806.67
2022-12-15T20:01:06.726Z,100811.47
2022-12-15T20:04:24.584Z,100810.23
2022-12-15T20:07:50.833Z,100812.53
2022-12-15T20:11:02.466Z,100805.65
2022-12-15T20:14:13.767Z,100814.88
2022-12-15T20:17:27.925Z,100811.83
2022-12-15T20:20:37.363Z,100805.84
2022-12-15T20:23:49.265Z,100811.13
2022-12-15T20:27:00.349Z,100813.55
2022-12-15T20:30:14.869Z,100823.00
2022-12-15T20:33:31.525Z,100830.62
2022-12-15T20:36:46.431Z,100838.61
2022-12-15T20:39:58.126Z,100849.89
2022-12-15T20:43:17.005Z,100847.08
2022-12-15T20:46:41.665Z,100852.88
2022-12-15T20:49:59.165Z,100851.23
2022-12-15T20:53:18.140Z,100854.81
2022-12-15T20:56:41.426Z,100862.75
2022-12-15T20:59:49.239Z,100859.84
2022-12-15T21:03:02.190Z,100860.70
2022-12-15T21:06:23.786Z,100859.00
2022-12-15T21:09:36.823Z,100871.40
2022-12-15T21:12:49.452Z,100873.28
2022-12-15T21:16:06.590Z,100871.87
2022-12-15T21:19:23.128Z,100876.53
2022-12-15T21:22:43.914Z,100877.93
2022-12-15T21:25:57.014Z,100887.16
2022-12-15T21:29:15.162Z,100887.69
2022-12-15T21:32:30.938Z,100889.69
2022-12-15T21:35:44.482Z,100895.58
2022-12-15T21:38:59.626Z,100902.50
2022-12-15T21:42:27.272Z,100915.91
2022-12-15T21:45:45.971Z,100921.67
